Time;durP1;ratioP1;P1;durP2;ratioP2;P2;SDS_P1;SDS_P2;PMS_P1;PMS_P2;Temp;Humidity;BMP_temperature;BMP_pressure;BME280_temperature;BME280_humidity;BME280_pressure;Samples;Min_cycle;Max_cycle;Signal;HPM_P1;HPM_P2
2023/11/27 00:00:54;;;;;;;0.60;0.55;;;4.50;99.90;;;;;;5041118;28;20196;-80
2023/11/27 00:03:21;;;;;;;2.03;1.23;;;4.50;99.90;;;;;;5048707;28;20227;-81
2023/11/27 00:05:48;;;;;;;4.38;1.17;;;4.50;99.90;;;;;;5041561;28;20200;-80
2023/11/27 00:08:16;;;;;;;3.10;2.17;;;4.50;99.90;;;;;;5041776;28;20196;-80
2023/11/27 00:10:43;;;;;;;1.38;1.27;;;4.50;99.90;;;;;;5043757;28;20195;-80
2023/11/27 00:13:10;;;;;;;1.58;1.20;;;4.50;99.90;;;;;;5043224;28;20219;-81
2023/11/27 00:15:37;;;;;;;2.25;1.38;;;4.50;99.90;;;;;;5041163;28;20203;-81
2023/11/27 00:18:04;;;;;;;2.00;1.80;;;4.50;99.90;;;;;;5040438;28;20294;-80
2023/11/27 00:20:30;;;;;;;0.75;0.75;;;4.50;99.90;;;;;;5044243;28;20283;-80
2023/11/27 00:22:57;;;;;;;1.02;0.68;;;4.50;99.90;;;;;;5043935;28;20215;-81
2023/11/27 00:25:26;;;;;;;2.45;1.02;;;4.50;99.90;;;;;;5043870;28;20199;-81
2023/11/27 00:27:52;;;;;;;3.03;2.08;;;4.50;99.90;;;;;;5043853;28;20211;-81
2023/11/27 00:30:19;;;;;;;1.15;1.15;;;4.40;99.90;;;;;;5045767;28;20200;-80
2023/11/27 00:32:46;;;;;;;4.18;2.20;;;4.40;99.90;;;;;;5047401;28;20227;-80
2023/11/27 00:35:13;;;;;;;0.50;0.43;;;4.40;99.90;;;;;;5046403;28;20195;-80
2023/11/27 00:37:39;;;;;;;0.70;0.70;;;4.40;99.90;;;;;;5044163;28;20196;-80
2023/11/27 00:40:07;;;;;;;6.75;2.63;;;4.40;99.90;;;;;;5045088;28;20295;-80
2023/11/27 00:42:36;;;;;;;1.85;1.75;;;4.40;99.90;;;;;;5045991;28;20207;-81
2023/11/27 00:45:02;;;;;;;0.80;0.80;;;4.40;99.90;;;;;;5046163;28;20586;-81
2023/11/27 00:47:29;;;;;;;2.20;2.10;;;4.40;99.90;;;;;;5048187;28;20693;-81
2023/11/27 00:49:56;;;;;;;1.67;1.58;;;4.50;99.90;;;;;;5047658;28;20714;-81
2023/11/27 00:52:23;;;;;;;2.17;1.10;;;4.50;99.90;;;;;;5045339;28;20226;-80
2023/11/27 00:54:50;;;;;;;2.65;1.75;;;4.50;99.90;;;;;;5043734;28;20200;-82
2023/11/27 00:57:17;;;;;;;1.90;1.42;;;4.40;99.90;;;;;;5043804;28;20199;-82
2023/11/27 00:59:45;;;;;;;2.63;2.20;;;4.50;99.90;;;;;;5044355;28;20211;-81
2023/11/27 01:02:12;;;;;;;0.60;0.60;;;4.50;99.90;;;;;;5044253;28;20663;-81
2023/11/27 01:04:39;;;;;;;1.58;1.48;;;4.50;99.90;;;;;;5047629;28;20210;-81
2023/11/27 01:07:06;;;;;;;1.05;0.70;;;4.40;99.90;;;;;;5047356;28;20644;-81
2023/11/27 01:09:34;;;;;;;1.55;1.45;;;4.40;99.90;;;;;;5038586;28;20658;-81
2023/11/27 01:12:01;;;;;;;3.40;0.90;;;4.40;99.90;;;;;;5046938;28;20200;-81
2023/11/27 01:14:28;;;;;;;1.17;0.70;;;4.40;99.90;;;;;;5044413;28;20678;-80
2023/11/27 01:16:56;;;;;;;1.95;1.85;;;4.30;99.90;;;;;;5042855;28;20206;-81
2023/11/27 01:19:23;;;;;;;2.00;1.52;;;4.30;99.90;;;;;;5044750;28;20207;-81
2023/11/27 01:21:50;;;;;;;1.25;1.15;;;4.30;99.90;;;;;;5046900;28;20199;-81
2023/11/27 01:24:19;;;;;;;1.20;1.20;;;4.30;99.90;;;;;;5045594;28;20215;-80
2023/11/27 01:26:46;;;;;;;1.35;1.25;;;4.20;99.90;;;;;;5043288;28;20196;-81
2023/11/27 01:29:13;;;;;;;0.95;0.95;;;4.20;99.90;;;;;;5042710;28;20212;-81
2023/11/27 01:31:40;;;;;;;0.40;0.40;;;4.20;99.90;;;;;;5046712;28;20207;-82
2023/11/27 01:34:09;;;;;;;4.40;1.35;;;4.20;99.90;;;;;;5046638;28;20238;-80
2023/11/27 01:36:35;;;;;;;0.50;0.50;;;4.20;99.90;;;;;;5043054;28;20200;-81
2023/11/27 01:39:03;;;;;;;2.35;1.38;;;4.20;99.90;;;;;;5043493;28;20219;-82
2023/11/27 01:41:30;;;;;;;7.32;1.30;;;4.10;99.90;;;;;;5050848;28;20230;-80
2023/11/27 01:43:57;;;;;;;1.33;0.98;;;4.10;99.90;;;;;;5040249;28;20218;-81
2023/11/27 01:46:26;;;;;;;1.90;1.80;;;4.10;99.90;;;;;;5045308;28;20221;-82
2023/11/27 01:48:53;;;;;;;0.93;0.65;;;4.10;99.90;;;;;;5048416;28;20210;-82
2023/11/27 01:51:22;;;;;;;1.48;1.38;;;4.00;99.90;;;;;;5045206;28;20199;-78
2023/11/27 01:53:50;;;;;;;4.38;1.45;;;4.00;99.90;;;;;;5043038;28;20216;-81
2023/11/27 01:56:18;;;;;;;0.50;0.50;;;4.00;99.90;;;;;;5042955;28;20659;-80
2023/11/27 01:58:46;;;;;;;0.98;0.98;;;4.00;99.90;;;;;;5046415;28;20209;-82
2023/11/27 02:01:13;;;;;;;1.67;1.58;;;4.00;99.90;;;;;;5046415;28;20196;-82
2023/11/27 02:03:40;;;;;;;1.10;1.10;;;3.90;99.90;;;;;;5043569;28;20215;-82
2023/11/27 02:06:08;;;;;;;4.95;1.80;;;4.00;99.90;;;;;;5043664;28;20291;-81
2023/11/27 02:08:37;;;;;;;3.40;1.50;;;3.90;99.90;;;;;;5045429;28;20817;-81
2023/11/27 02:11:04;;;;;;;2.58;2.15;;;3.90;99.90;;;;;;5046037;28;20289;-82
2023/11/27 02:13:31;;;;;;;2.47;1.85;;;3.90;99.90;;;;;;5043702;28;20294;-81
2023/11/27 02:15:58;;;;;;;1.60;1.60;;;3.90;99.90;;;;;;5041706;28;20703;-82
2023/11/27 02:18:25;;;;;;;0.70;0.70;;;3.90;99.90;;;;;;5042915;28;20210;-80
2023/11/27 02:20:52;;;;;;;0.90;0.90;;;3.90;99.90;;;;;;5045536;28;20209;-81
2023/11/27 02:23:20;;;;;;;5.78;4.22;;;3.90;99.90;;;;;;5045602;28;20215;-81
2023/11/27 02:25:47;;;;;;;1.70;0.98;;;3.80;99.90;;;;;;5042104;28;20235;-83
2023/11/27 02:28:14;;;;;;;1.27;1.17;;;3.80;99.90;;;;;;5042093;28;20290;-80
2023/11/27 02:30:41;;;;;;;3.35;3.05;;;3.80;99.90;;;;;;5044648;28;20195;-81
2023/11/27 02:33:08;;;;;;;1.90;0.88;;;3.80;99.90;;;;;;5045388;28;20241;-80
2023/11/27 02:35:34;;;;;;;2.53;1.60;;;3.80;99.90;;;;;;5043004;28;20203;-80
2023/11/27 02:38:01;;;;;;;0.40;0.40;;;3.80;99.90;;;;;;5041591;28;20210;-81
2023/11/27 02:40:30;;;;;;;1.35;1.35;;;3.80;99.90;;;;;;5042473;28;20223;-82
2023/11/27 02:42:57;;;;;;;1.42;0.95;;;3.80;99.90;;;;;;5044453;28;20234;-81
2023/11/27 02:45:24;;;;;;;1.05;1.00;;;3.80;99.90;;;;;;5043988;28;20198;-82
2023/11/27 02:47:51;;;;;;;0.50;0.50;;;3.80;99.90;;;;;;5041466;28;20200;-79
2023/11/27 02:50:18;;;;;;;0.93;0.93;;;3.80;99.90;;;;;;5041734;28;20196;-80
2023/11/27 02:52:45;;;;;;;3.30;1.98;;;3.80;99.90;;;;;;5044291;28;20222;-81
2023/11/27 02:55:12;;;;;;;1.60;1.50;;;3.80;99.90;;;;;;5046366;28;20196;-80
2023/11/27 02:57:40;;;;;;;4.20;3.00;;;3.80;99.90;;;;;;5043138;28;20191;-80
2023/11/27 03:00:12;;;;;;;2.63;2.38;;;3.80;99.90;;;;;;5044662;28;20218;-82
2023/11/27 03:02:39;;;;;;;1.73;1.63;;;3.80;99.90;;;;;;5042557;28;20249;-80
2023/11/27 03:05:08;;;;;;;0.75;0.75;;;3.80;99.90;;;;;;5041158;28;20192;-81
2023/11/27 03:07:34;;;;;;;0.40;0.40;;;3.80;99.90;;;;;;5042831;28;20198;-82
2023/11/27 03:10:02;;;;;;;2.80;2.08;;;3.70;99.90;;;;;;5044664;28;20206;-80
2023/11/27 03:12:29;;;;;;;3.80;2.08;;;3.80;99.90;;;;;;5043318;28;20219;-79
2023/11/27 03:14:57;;;;;;;5.50;1.65;;;3.80;99.90;;;;;;5040972;28;20238;-81
2023/11/27 03:17:25;;;;;;;1.55;1.45;;;3.80;99.90;;;;;;5041065;28;20206;-81
2023/11/27 03:19:52;;;;;;;1.98;0.80;;;3.80;99.90;;;;;;5044490;28;20202;-80
2023/11/27 03:22:19;;;;;;;2.60;2.13;;;3.80;99.90;;;;;;5048886;28;20199;-80
2023/11/27 03:24:46;;;;;;;1.63;1.52;;;3.80;99.90;;;;;;5041505;28;20659;-81
2023/11/27 03:27:13;;;;;;;1.02;0.80;;;3.70;99.90;;;;;;5040858;28;20196;-80
2023/11/27 03:29:40;;;;;;;0.70;0.70;;;3.70;99.90;;;;;;5042784;28;20207;-81
2023/11/27 03:32:08;;;;;;;2.80;2.60;;;3.70;99.90;;;;;;5044393;28;20199;-82
2023/11/27 03:34:35;;;;;;;2.40;2.20;;;3.80;99.90;;;;;;5042955;28;20210;-80
2023/11/27 03:37:02;;;;;;;0.75;0.75;;;3.70;99.90;;;;;;5040838;28;20293;-81
2023/11/27 03:39:29;;;;;;;2.88;2.67;;;3.80;99.90;;;;;;5041493;28;20245;-81
2023/11/27 03:41:55;;;;;;;2.15;1.45;;;3.70;99.90;;;;;;5044365;28;20659;-80
2023/11/27 03:44:22;;;;;;;0.40;0.40;;;3.70;99.90;;;;;;5044157;28;20217;-80
2023/11/27 03:46:49;;;;;;;21.15;4.25;;;3.70;99.90;;;;;;5040920;28;20200;-82
2023/11/27 03:49:17;;;;;;;3.40;3.10;;;3.70;99.90;;;;;;5040703;28;20223;-80
2023/11/27 03:51:44;;;;;;;4.95;3.88;;;3.70;99.90;;;;;;5043104;28;20208;-80
2023/11/27 03:54:12;;;;;;;1.90;1.80;;;3.70;99.90;;;;;;5047027;28;20215;-82
2023/11/27 03:56:39;;;;;;;2.50;2.30;;;3.70;99.90;;;;;;5046148;28;20226;-80
2023/11/27 03:59:06;;;;;;;3.10;2.83;;;3.80;99.90;;;;;;5045227;28;20273;-81
2023/11/27 04:01:33;;;;;;;1.70;1.60;;;3.70;99.90;;;;;;5045294;28;20196;-82
2023/11/27 04:04:00;;;;;;;2.45;2.25;;;3.70;99.90;;;;;;5047706;28;20211;-81
2023/11/27 04:06:31;;;;;;;2.40;2.05;;;3.70;99.90;;;;;;5047700;28;20195;-81
2023/11/27 04:08:58;;;;;;;3.25;0.50;;;3.70;99.90;;;;;;5031573;28;20247;-81
2023/11/27 04:11:27;;;;;;;2.35;2.22;;;3.70;99.90;;;;;;5044324;28;20199;-80
2023/11/27 04:13:54;;;;;;;2.45;1.85;;;3.70;99.90;;;;;;5047819;28;20215;-82
2023/11/27 04:16:21;;;;;;;1.30;0.93;;;3.70;99.90;;;;;;5048144;28;20221;-82
2023/11/27 04:18:48;;;;;;;0.50;0.50;;;3.70;99.90;;;;;;5044774;28;20206;-83
2023/11/27 04:21:17;;;;;;;1.73;1.63;;;3.70;99.90;;;;;;5044876;28;20686;-82
2023/11/27 04:23:46;;;;;;;0.52;0.52;;;3.70;99.90;;;;;;5046527;28;20281;-81
2023/11/27 04:26:13;;;;;;;1.73;1.58;;;3.70;99.90;;;;;;5047021;28;20709;-82
2023/11/27 04:28:40;;;;;;;0.40;0.40;;;3.70;99.90;;;;;;5045407;28;20210;-81
2023/11/27 04:31:08;;;;;;;4.63;0.95;;;3.70;99.90;;;;;;5043468;28;20223;-82
2023/11/27 04:33:35;;;;;;;0.75;0.75;;;3.70;99.90;;;;;;5043713;28;20236;-80
2023/11/27 04:36:02;;;;;;;1.83;1.73;;;3.70;99.90;;;;;;5046507;28;20206;-80
2023/11/27 04:38:29;;;;;;;3.05;1.92;;;3.70;99.90;;;;;;5046966;28;20199;-82
2023/11/27 04:40:57;;;;;;;4.00;2.58;;;3.70;99.90;;;;;;5035496;28;20196;-78
2023/11/27 04:43:25;;;;;;;1.70;1.20;;;3.70;99.90;;;;;;5043551;28;20223;-79
2023/11/27 04:45:52;;;;;;;4.10;1.48;;;3.60;99.90;;;;;;5047522;28;20199;-81
2023/11/27 04:48:19;;;;;;;1.25;1.25;;;3.60;99.90;;;;;;5050803;28;20289;-81
2023/11/27 04:50:47;;;;;;;1.58;1.48;;;3.60;99.90;;;;;;5048441;28;20221;-82
2023/11/27 04:53:14;;;;;;;5.20;2.40;;;3.60;99.90;;;;;;5045514;28;20222;-82
2023/11/27 04:55:41;;;;;;;1.45;1.35;;;3.60;99.90;;;;;;5042015;28;20210;-81
2023/11/27 04:58:09;;;;;;;6.05;3.70;;;3.60;99.90;;;;;;5043519;28;20200;-82
2023/11/27 05:00:36;;;;;;;4.13;3.83;;;3.60;99.90;;;;;;5045256;28;20196;-81
2023/11/27 05:03:04;;;;;;;4.65;2.80;;;3.60;99.90;;;;;;5049281;28;20610;-81
2023/11/27 05:05:30;;;;;;;4.10;2.88;;;3.60;99.90;;;;;;5046741;28;20190;-81
2023/11/27 05:07:57;;;;;;;1.75;1.65;;;3.50;99.90;;;;;;5043340;28;20202;-81
2023/11/27 05:10:24;;;;;;;1.88;1.15;;;3.50;99.90;;;;;;5043397;28;20614;-80
2023/11/27 05:12:51;;;;;;;0.82;0.68;;;3.50;99.90;;;;;;5045147;28;20224;-81
2023/11/27 05:15:19;;;;;;;1.75;1.15;;;3.50;99.90;;;;;;5047009;28;20215;-80
2023/11/27 05:17:47;;;;;;;6.07;5.10;;;3.50;99.90;;;;;;5044623;28;20206;-80
2023/11/27 05:20:14;;;;;;;0.40;0.40;;;3.50;99.90;;;;;;5043211;28;20920;-79
2023/11/27 05:22:40;;;;;;;1.60;1.52;;;3.50;99.90;;;;;;5043394;28;20215;-80
2023/11/27 05:25:09;;;;;;;1.65;0.95;;;3.40;99.90;;;;;;5046676;28;20195;-80
2023/11/27 05:27:35;;;;;;;10.82;6.18;;;3.50;99.90;;;;;;5046421;28;20199;-81
2023/11/27 05:30:02;;;;;;;1.23;0.88;;;3.50;99.90;;;;;;5043295;28;20199;-81
2023/11/27 05:32:31;;;;;;;7.28;3.35;;;3.50;99.90;;;;;;5043565;28;20576;-79
2023/11/27 05:34:57;;;;;;;14.73;6.70;;;3.40;99.90;;;;;;5046581;28;20215;-79
2023/11/27 05:37:24;;;;;;;4.43;2.28;;;3.40;99.90;;;;;;5046636;28;20199;-81
2023/11/27 05:39:51;;;;;;;0.90;0.88;;;3.40;99.90;;;;;;5044200;28;20203;-79
2023/11/27 05:42:20;;;;;;;0.80;0.80;;;3.40;99.90;;;;;;5040104;28;20197;-79
2023/11/27 05:44:48;;;;;;;4.00;2.30;;;3.40;99.90;;;;;;5044037;28;20334;-80
2023/11/27 05:47:15;;;;;;;6.78;4.18;;;3.50;99.90;;;;;;5042383;28;20206;-82
2023/11/27 05:49:43;;;;;;;2.22;2.03;;;3.50;99.90;;;;;;5043354;28;20571;-80
2023/11/27 05:52:11;;;;;;;1.70;1.60;;;3.40;99.90;;;;;;5046455;28;20255;-78
2023/11/27 05:54:38;;;;;;;0.93;0.93;;;3.40;99.90;;;;;;5045947;28;20583;-81
2023/11/27 05:57:05;;;;;;;1.67;1.15;;;3.40;99.90;;;;;;5043190;28;20574;-81
2023/11/27 05:59:32;;;;;;;0.50;0.50;;;3.40;99.90;;;;;;5066944;22;20226;-79
2023/11/27 06:01:59;;;;;;;0.40;0.40;;;3.30;99.90;;;;;;5075692;28;20194;-80
2023/11/27 06:04:26;;;;;;;1.25;1.15;;;3.40;99.90;;;;;;5068998;28;20191;-80
2023/11/27 06:06:54;;;;;;;1.30;1.10;;;3.40;99.90;;;;;;5066347;28;20202;-79
2023/11/27 06:09:22;;;;;;;1.17;0.90;;;3.30;99.90;;;;;;5061666;28;20215;-78
2023/11/27 06:11:48;;;;;;;1.15;1.05;;;3.40;99.90;;;;;;5047524;28;20257;-80
2023/11/27 06:14:15;;;;;;;1.15;1.05;;;3.30;99.90;;;;;;5044562;28;20221;-80
2023/11/27 06:16:42;;;;;;;4.20;3.05;;;3.40;99.90;;;;;;5044724;28;20231;-80
2023/11/27 06:19:09;;;;;;;0.82;0.82;;;3.30;99.90;;;;;;5048696;28;20262;-77
2023/11/27 06:21:36;;;;;;;0.82;0.82;;;3.30;99.90;;;;;;5049165;28;20605;-80
2023/11/27 06:24:06;;;;;;;3.53;1.15;;;3.30;99.90;;;;;;5040184;28;20274;-80
2023/11/27 06:26:33;;;;;;;9.23;5.13;;;3.30;99.90;;;;;;5047777;28;20218;-80
2023/11/27 06:28:59;;;;;;;3.10;2.67;;;3.30;99.90;;;;;;5044393;28;20218;-79
2023/11/27 06:31:26;;;;;;;7.57;2.45;;;3.30;99.90;;;;;;5044376;28;20694;-79
2023/11/27 06:33:53;;;;;;;5.80;3.60;;;3.20;99.90;;;;;;5045736;28;20219;-81
2023/11/27 06:36:20;;;;;;;7.32;6.20;;;3.20;99.90;;;;;;5046421;28;20290;-77
2023/11/27 06:38:46;;;;;;;7.90;5.82;;;3.20;99.90;;;;;;5046683;28;20214;-77
2023/11/27 06:41:14;;;;;;;3.85;3.65;;;3.10;99.90;;;;;;5043846;28;20219;-78
2023/11/27 06:43:42;;;;;;;4.30;3.58;;;3.10;99.90;;;;;;5044302;28;20291;-80
2023/11/27 06:46:11;;;;;;;9.20;3.47;;;3.10;99.90;;;;;;5035196;28;20199;-79
2023/11/27 06:48:38;;;;;;;5.88;5.32;;;3.10;99.90;;;;;;5043282;28;20699;-78
2023/11/27 06:51:05;;;;;;;1.95;0.77;;;3.10;99.90;;;;;;5045926;28;20238;-79
2023/11/27 06:53:32;;;;;;;1.75;1.65;;;3.10;99.90;;;;;;5048177;28;20196;-78
2023/11/27 06:55:59;;;;;;;4.60;2.45;;;3.10;99.90;;;;;;5044302;28;20219;-80
2023/11/27 06:58:27;;;;;;;9.27;3.05;;;3.10;99.90;;;;;;5040046;28;20691;-79
2023/11/27 07:00:54;;;;;;;0.50;0.50;;;3.10;99.90;;;;;;5040907;28;20207;-79
2023/11/27 07:03:20;;;;;;;0.80;0.80;;;3.10;99.90;;;;;;5043252;28;20203;-79
2023/11/27 07:05:47;;;;;;;1.83;1.38;;;3.10;99.90;;;;;;5042497;28;20198;-79
2023/11/27 07:08:14;;;;;;;1.05;1.05;;;3.20;99.90;;;;;;5039479;28;20211;-79
2023/11/27 07:10:41;;;;;;;3.20;2.35;;;3.20;99.90;;;;;;5039843;28;20208;-79
2023/11/27 07:13:08;;;;;;;2.75;2.15;;;3.20;99.90;;;;;;5039917;28;20560;-79
2023/11/27 07:15:36;;;;;;;3.42;2.67;;;3.20;99.90;;;;;;5039927;28;20218;-79
2023/11/27 07:18:03;;;;;;;1.15;0.85;;;3.20;99.90;;;;;;5043122;28;20208;-79
2023/11/27 07:20:31;;;;;;;0.50;0.50;;;3.20;99.90;;;;;;5043041;28;20302;-79
2023/11/27 07:22:58;;;;;;;1.73;1.55;;;3.30;99.90;;;;;;5041492;28;20199;-79
2023/11/27 07:25:25;;;;;;;1.35;1.02;;;3.20;99.90;;;;;;5039729;28;20258;-79
2023/11/27 07:27:52;;;;;;;2.85;2.65;;;3.20;99.90;;;;;;5040880;28;20685;-79
2023/11/27 07:30:19;;;;;;;3.03;2.60;;;3.20;99.90;;;;;;5047406;28;20218;-81
2023/11/27 07:32:47;;;;;;;1.58;1.48;;;3.20;99.90;;;;;;5047420;28;20285;-79
2023/11/27 07:35:14;;;;;;;1.15;0.93;;;3.20;99.90;;;;;;5035712;28;20291;-79
2023/11/27 07:37:42;;;;;;;8.35;4.95;;;3.20;99.90;;;;;;5043399;28;20207;-79
2023/11/27 07:40:11;;;;;;;2.25;1.20;;;3.20;99.90;;;;;;5046078;28;20219;-79
2023/11/27 07:42:38;;;;;;;4.25;3.85;;;3.20;99.90;;;;;;5046720;28;20276;-79
2023/11/27 07:45:06;;;;;;;1.40;1.30;;;3.20;99.90;;;;;;5043604;28;20195;-79
2023/11/27 07:47:33;;;;;;;2.25;1.95;;;3.20;99.90;;;;;;5043214;28;20287;-79
2023/11/27 07:50:01;;;;;;;2.03;1.73;;;3.20;99.90;;;;;;5044698;28;20226;-79
2023/11/27 07:52:28;;;;;;;0.50;0.50;;;3.10;99.90;;;;;;5047028;28;20203;-80
2023/11/27 07:54:56;;;;;;;0.77;0.77;;;3.20;99.90;;;;;;5045654;28;20223;-78
2023/11/27 07:57:23;;;;;;;1.90;1.33;;;3.20;99.90;;;;;;5043944;28;20196;-75
2023/11/27 07:59:51;;;;;;;5.10;1.20;;;3.20;99.90;;;;;;5042964;28;20576;-78
2023/11/27 08:02:18;;;;;;;0.43;0.43;;;3.20;99.90;;;;;;5046658;28;20259;-79
2023/11/27 08:04:45;;;;;;;1.20;1.10;;;3.20;99.90;;;;;;5046543;28;20195;-78
2023/11/27 08:07:13;;;;;;;2.35;1.25;;;3.20;99.90;;;;;;5042859;28;20196;-79
2023/11/27 08:09:40;;;;;;;1.73;1.60;;;3.10;99.90;;;;;;5042211;28;20599;-79
2023/11/27 08:12:12;;;;;;;2.15;2.03;;;3.10;99.90;;;;;;5044880;28;20203;-79
2023/11/27 08:14:39;;;;;;;2.25;2.05;;;3.10;99.90;;;;;;5046717;28;20223;-78
2023/11/27 08:17:06;;;;;;;7.60;2.55;;;3.10;99.90;;;;;;5043546;28;20245;-79
2023/11/27 08:19:34;;;;;;;0.95;0.60;;;3.10;99.90;;;;;;5042691;28;20222;-78
2023/11/27 08:22:03;;;;;;;1.02;0.85;;;3.10;99.90;;;;;;5044841;28;20207;-80
2023/11/27 08:24:33;;;;;;;1.35;1.35;;;3.10;99.90;;;;;;5045956;28;20647;-80
2023/11/27 08:27:01;;;;;;;6.18;2.55;;;3.10;99.90;;;;;;5045197;28;20571;-79
2023/11/27 08:29:29;;;;;;;1.25;1.15;;;3.10;99.90;;;;;;5042378;28;20215;-79
2023/11/27 08:31:58;;;;;;;4.75;1.10;;;3.10;99.90;;;;;;5042819;28;20638;-78
2023/11/27 08:34:25;;;;;;;4.00;1.85;;;3.10;99.90;;;;;;5052855;28;20191;-80
2023/11/27 08:36:51;;;;;;;3.75;3.33;;;3.10;99.90;;;;;;5046428;28;20210;-81
2023/11/27 08:39:20;;;;;;;0.50;0.50;;;3.10;99.90;;;;;;5044688;28;20219;-79
2023/11/27 08:41:50;;;;;;;1.83;1.73;;;3.00;99.90;;;;;;5046014;28;20227;-79
2023/11/27 08:44:17;;;;;;;0.95;0.85;;;3.10;99.90;;;;;;5044686;28;20196;-81
2023/11/27 08:46:44;;;;;;;0.70;0.70;;;3.10;99.90;;;;;;5049834;28;20200;-80
2023/11/27 08:49:11;;;;;;;0.73;0.73;;;3.10;99.90;;;;;;5045872;28;20229;-77
2023/11/27 08:51:37;;;;;;;1.27;1.15;;;3.10;99.90;;;;;;5047136;28;20282;-79
2023/11/27 08:54:04;;;;;;;1.85;1.75;;;3.10;99.90;;;;;;5045506;28;20203;-79
2023/11/27 08:56:33;;;;;;;2.35;1.73;;;3.10;99.90;;;;;;5042768;28;20674;-78
2023/11/27 08:59:01;;;;;;;2.10;0.80;;;3.00;99.90;;;;;;5043438;28;20220;-78
2023/11/27 09:01:28;;;;;;;0.50;0.50;;;3.00;99.90;;;;;;5046759;28;20277;-79
2023/11/27 09:03:55;;;;;;;2.05;1.95;;;3.00;99.90;;;;;;5047388;28;20227;-77
2023/11/27 09:06:22;;;;;;;1.30;1.20;;;3.00;99.90;;;;;;5044878;28;20678;-75
2023/11/27 09:08:50;;;;;;;0.40;0.40;;;3.00;99.90;;;;;;5045653;28;20223;-81
2023/11/27 09:11:16;;;;;;;3.00;2.00;;;2.90;99.90;;;;;;5047146;28;20210;-76
2023/11/27 09:13:43;;;;;;;3.55;2.85;;;2.90;99.90;;;;;;5046232;28;20202;-79
2023/11/27 09:16:12;;;;;;;0.50;0.50;;;2.90;99.90;;;;;;5043368;28;20215;-79
2023/11/27 09:18:38;;;;;;;2.78;1.05;;;2.90;99.90;;;;;;5042566;28;20220;-79
2023/11/27 09:21:06;;;;;;;2.38;0.80;;;2.90;99.90;;;;;;5043756;28;20598;-79
2023/11/27 09:23:33;;;;;;;0.40;0.40;;;2.90;99.90;;;;;;5050142;28;20258;-79
2023/11/27 09:26:00;;;;;;;1.25;0.98;;;3.00;99.90;;;;;;5042494;28;20246;-79
2023/11/27 09:28:28;;;;;;;2.47;2.38;;;2.90;99.90;;;;;;5045196;28;20230;-79
2023/11/27 09:30:54;;;;;;;1.75;1.65;;;2.90;99.90;;;;;;5045198;28;20579;-77
2023/11/27 09:33:23;;;;;;;0.50;0.50;;;2.80;99.90;;;;;;5044633;28;20195;-78
2023/11/27 09:35:49;;;;;;;2.35;1.58;;;2.80;99.90;;;;;;5045176;28;20588;-78
2023/11/27 09:38:16;;;;;;;0.40;0.40;;;2.90;99.90;;;;;;5042094;28;20196;-79
2023/11/27 09:40:43;;;;;;;0.70;0.70;;;2.90;99.90;;;;;;5050321;28;20200;-81
2023/11/27 09:43:10;;;;;;;1.52;1.02;;;2.90;99.90;;;;;;5045365;28;20210;-78
2023/11/27 09:45:37;;;;;;;4.35;2.80;;;2.90;99.90;;;;;;5044998;28;20195;-79
2023/11/27 09:48:10;;;;;;;0.80;0.80;;;2.80;99.90;;;;;;5043298;28;20257;-78
2023/11/27 09:50:38;;;;;;;0.50;0.50;;;2.80;99.90;;;;;;5045544;28;20259;-81
2023/11/27 09:53:06;;;;;;;0.40;0.40;;;2.80;99.90;;;;;;5041208;28;20216;-80
2023/11/27 09:55:35;;;;;;;0.63;0.60;;;2.80;99.90;;;;;;5049966;28;20282;-79
2023/11/27 09:58:05;;;;;;;0.60;0.60;;;2.80;99.90;;;;;;5041015;28;20266;-78
2023/11/27 10:00:32;;;;;;;0.50;0.47;;;2.90;99.90;;;;;;5044764;28;20230;-79
2023/11/27 10:02:59;;;;;;;0.82;0.60;;;2.90;99.90;;;;;;5044496;28;20227;-79
2023/11/27 10:05:25;;;;;;;1.65;1.55;;;2.90;99.90;;;;;;5044675;28;20194;-79
2023/11/27 10:07:54;;;;;;;0.40;0.40;;;2.90;99.90;;;;;;5044000;28;20207;-79
2023/11/27 10:10:26;;;;;;;0.90;0.50;;;2.90;99.90;;;;;;5040862;28;20227;-79
2023/11/27 10:12:53;;;;;;;0.40;0.40;;;2.90;99.90;;;;;;5040712;28;20207;-78
2023/11/27 10:15:20;;;;;;;1.40;1.30;;;2.90;99.90;;;;;;5040216;28;20215;-78
2023/11/27 10:17:47;;;;;;;0.88;0.88;;;2.90;99.90;;;;;;5040490;28;20199;-79
2023/11/27 10:20:15;;;;;;;0.40;0.40;;;2.90;99.90;;;;;;5041850;28;20306;-76
2023/11/27 10:22:42;;;;;;;0.50;0.50;;;2.90;99.90;;;;;;5043856;28;20226;-79
2023/11/27 10:25:13;;;;;;;0.43;0.40;;;3.00;99.90;;;;;;5042715;28;20601;-76
2023/11/27 10:27:41;;;;;;;2.25;1.95;;;3.00;99.90;;;;;;5040525;28;20204;-78
2023/11/27 10:30:19;;;;;;;0.70;0.70;;;3.00;99.90;;;;;;5041731;28;20219;-79
2023/11/27 10:32:46;;;;;;;1.05;0.82;;;3.00;99.90;;;;;;5045078;28;20199;-79
2023/11/27 10:35:13;;;;;;;0.80;0.63;;;3.00;99.90;;;;;;5042682;28;20290;-79
2023/11/27 10:37:41;;;;;;;0.40;0.40;;;2.90;99.90;;;;;;5041072;28;20207;-79
2023/11/27 10:40:13;;;;;;;0.68;0.68;;;2.90;99.90;;;;;;5042425;28;20224;-79
2023/11/27 10:42:44;;;;;;;0.60;0.43;;;3.00;99.90;;;;;;5045105;28;20202;-80
2023/11/27 10:45:13;;;;;;;2.30;2.20;;;3.00;99.90;;;;;;5044323;28;20198;-80
2023/11/27 10:47:41;;;;;;;1.77;1.40;;;3.00;99.90;;;;;;5041897;28;20206;-79
2023/11/27 10:50:10;;;;;;;1.35;1.15;;;2.90;99.90;;;;;;5041959;28;20215;-80
2023/11/27 10:52:38;;;;;;;0.40;0.40;;;2.90;99.90;;;;;;5040697;28;20196;-79
2023/11/27 10:55:08;;;;;;;0.60;0.60;;;2.90;99.90;;;;;;5042993;28;20571;-77
2023/11/27 10:57:38;;;;;;;1.45;0.90;;;3.00;99.90;;;;;;5045212;28;20199;-78
2023/11/27 11:00:07;;;;;;;0.68;0.68;;;3.00;99.90;;;;;;5044551;28;20682;-77
2023/11/27 11:02:36;;;;;;;0.45;0.45;;;3.00;99.90;;;;;;5042254;28;20289;-79
2023/11/27 11:05:07;;;;;;;0.68;0.68;;;2.90;99.90;;;;;;5042448;28;20199;-79
2023/11/27 11:07:40;;;;;;;0.80;0.80;;;3.00;99.90;;;;;;5035025;28;20200;-79
2023/11/27 11:10:10;;;;;;;0.70;0.70;;;2.90;99.90;;;;;;5037926;28;20226;-79
2023/11/27 11:12:41;;;;;;;0.40;0.40;;;2.90;99.90;;;;;;5047335;28;20191;-80
2023/11/27 11:15:13;;;;;;;0.73;0.73;;;2.90;99.90;;;;;;5051146;28;20278;-79
2023/11/27 11:17:47;;;;;;;0.50;0.50;;;3.00;99.90;;;;;;5038957;28;20253;-80
2023/11/27 11:20:28;;;;;;;0.57;0.57;;;2.90;99.90;;;;;;5053416;28;20230;-75
2023/11/27 11:23:08;;;;;;;0.40;0.40;;;2.90;99.90;;;;;;5049764;28;20203;-80
2023/11/27 11:25:42;;;;;;;0.40;0.40;;;3.00;99.90;;;;;;5035914;28;20192;-80
2023/11/27 11:28:16;;;;;;;1.63;1.10;;;3.10;99.90;;;;;;5049850;28;20214;-78
2023/11/27 11:30:44;;;;;;;0.50;0.50;;;3.10;99.90;;;;;;5042145;28;20306;-79
2023/11/27 11:33:17;;;;;;;1.00;0.90;;;3.00;99.90;;;;;;5037811;28;20214;-80
2023/11/27 11:35:46;;;;;;;0.68;0.57;;;2.90;99.90;;;;;;5045635;28;20219;-79
2023/11/27 11:38:16;;;;;;;0.50;0.50;;;3.00;99.90;;;;;;5044719;28;20204;-79
2023/11/27 11:40:48;;;;;;;0.40;0.40;;;3.00;99.90;;;;;;5046998;28;20702;-80
2023/11/27 11:43:17;;;;;;;0.77;0.77;;;3.00;99.90;;;;;;5046933;28;20214;-80
2023/11/27 11:45:45;;;;;;;0.85;0.85;;;3.00;99.90;;;;;;5047949;28;20203;-80
2023/11/27 11:48:15;;;;;;;0.40;0.40;;;3.00;99.90;;;;;;5045613;28;20201;-80
2023/11/27 11:50:42;;;;;;;1.05;1.05;;;3.00;99.90;;;;;;5043330;28;20571;-80
2023/11/27 11:53:39;;;;;;;0.40;0.40;;;3.10;99.90;;;;;;5051829;28;20667;-80
2023/11/27 11:56:19;;;;;;;2.28;0.75;;;3.20;99.90;;;;;;5005412;28;20227;-79
2023/11/27 11:58:50;;;;;;;0.75;0.75;;;3.20;99.90;;;;;;5036683;28;20236;-80
2023/11/27 12:01:18;;;;;;;0.75;0.75;;;3.10;99.90;;;;;;5044741;28;20238;-79
2023/11/27 12:03:46;;;;;;;0.50;0.50;;;3.10;99.90;;;;;;5047714;28;20253;-79
2023/11/27 12:06:17;;;;;;;0.40;0.40;;;3.20;99.90;;;;;;5041837;28;20219;-79
2023/11/27 12:08:44;;;;;;;1.65;1.55;;;3.30;99.90;;;;;;5045536;28;20227;-80
2023/11/27 12:11:13;;;;;;;0.55;0.55;;;3.30;99.90;;;;;;5042677;28;20803;-76
2023/11/27 12:13:43;;;;;;;1.40;0.57;;;3.30;99.90;;;;;;5044707;28;20203;-79
2023/11/27 12:16:12;;;;;;;1.33;0.98;;;3.30;99.90;;;;;;5038946;28;20216;-79
2023/11/27 12:18:43;;;;;;;0.95;0.85;;;3.30;99.90;;;;;;5034700;28;20242;-78
2023/11/27 12:21:11;;;;;;;0.95;0.60;;;3.30;99.90;;;;;;5045627;28;20263;-79
2023/11/27 12:23:40;;;;;;;0.40;0.40;;;3.20;99.90;;;;;;5038202;28;20195;-79
2023/11/27 12:26:08;;;;;;;0.82;0.70;;;3.30;99.90;;;;;;5046724;28;20234;-80
2023/11/27 12:28:36;;;;;;;1.00;1.00;;;3.30;99.90;;;;;;5048216;28;20211;-81
2023/11/27 12:31:03;;;;;;;6.78;2.35;;;3.30;99.90;;;;;;5048661;28;20202;-80
2023/11/27 12:33:33;;;;;;;0.40;0.40;;;3.20;99.90;;;;;;5045163;28;20202;-78
2023/11/27 12:36:04;;;;;;;0.73;0.73;;;3.20;99.90;;;;;;5044615;28;20216;-79
2023/11/27 12:38:32;;;;;;;1.55;1.40;;;3.20;99.90;;;;;;5047325;28;20211;-79
2023/11/27 12:41:03;;;;;;;0.40;0.40;;;3.20;99.90;;;;;;5046885;28;20209;-79
2023/11/27 12:43:35;;;;;;;1.05;1.05;;;3.20;99.90;;;;;;5045978;28;20294;-78
2023/11/27 12:46:05;;;;;;;0.55;0.55;;;3.30;99.90;;;;;;5045672;28;20286;-79
2023/11/27 12:48:35;;;;;;;0.40;0.40;;;3.30;99.90;;;;;;5047454;28;20228;-78
2023/11/27 12:51:02;;;;;;;0.50;0.50;;;3.30;99.90;;;;;;5047907;28;20638;-79
2023/11/27 12:53:29;;;;;;;0.80;0.80;;;3.30;99.90;;;;;;5045867;28;20199;-79
2023/11/27 12:55:56;;;;;;;0.40;0.40;;;3.40;99.90;;;;;;5044731;28;20200;-79
2023/11/27 12:58:23;;;;;;;0.50;0.50;;;3.40;99.90;;;;;;5045536;28;20200;-79
2023/11/27 13:00:55;;;;;;;0.50;0.50;;;3.30;99.90;;;;;;5048202;28;20622;-80